createdAt,value
2019-03-06T13:28:39.528Z,99342.02
2019-03-06T13:31:31.204Z,99331.88
2019-03-06T13:34:28.977Z,99318.46
2019-03-06T13:37:20.683Z,99320.35
2019-03-06T13:40:18.439Z,99309.31
2019-03-06T13:43:05.803Z,99306.84
2019-03-06T13:45:56.883Z,99304.69
2019-03-06T13:48:49.631Z,99296.52
2019-03-06T13:51:42.586Z,99295.73
2019-03-06T13:54:33.930Z,99297.42
2019-03-06T13:57:25.514Z,99300.74
2019-03-06T14:00:18.936Z,99298.26
2019-03-06T14:03:10.599Z,99297.69
2019-03-06T14:06:02.254Z,99295.86
2019-03-06T14:08:53.606Z,99292.89
2019-03-06T14:11:45.180Z,99294.33
2019-03-06T14:14:36.848Z,99297.01
2019-03-06T14:17:28.342Z,99298.31
2019-03-06T14:20:21.614Z,99305.26
2019-03-06T14:23:13.277Z,99313.41
2019-03-06T14:26:07.572Z,99316.36
2019-03-06T14:28:59.029Z,99308.26
2019-03-06T14:31:50.715Z,99308.45
2019-03-06T14:34:42.142Z,99305.73
2019-03-06T14:37:34.120Z,99298.27
2019-03-06T14:40:29.880Z,99298.42
2019-03-06T14:43:21.447Z,99293.55
2019-03-06T14:46:16.439Z,99284.52
2019-03-06T14:49:06.408Z,99266.88
2019-03-06T14:52:06.671Z,99267.27
2019-03-06T14:54:51.034Z,99270.74
2019-03-06T14:57:43.306Z,99268.91
2019-03-06T15:00:36.157Z,99257.09
2019-03-06T15:03:27.756Z,99256.75
2019-03-06T15:06:19.180Z,99253.44
2019-03-06T15:09:24.903Z,99251.78
2019-03-06T15:12:17.644Z,99242.23
2019-03-06T15:15:12.001Z,99243.42
2019-03-06T15:18:10.419Z,99232.06
2019-03-06T15:20:56.968Z,99225.77
2019-03-06T15:23:48.609Z,99221.76
2019-03-06T15:26:40.250Z,99222.87
2019-03-06T15:29:32.089Z,99216.55
2019-03-06T15:32:23.803Z,99208.56
2019-03-06T15:35:16.416Z,99212.88
2019-03-06T15:38:10.297Z,99202.89
2019-03-06T15:41:02.038Z,99204.46
2019-03-06T15:43:53.489Z,99209.98
2019-03-06T15:46:44.959Z,99207.20
2019-03-06T15:49:36.625Z,99206.69
2019-03-06T15:52:28.155Z,99209.44
2019-03-06T15:55:23.122Z,99216.27
2019-03-06T15:58:14.931Z,99215.77
2019-03-06T16:01:06.761Z,99213.75
2019-03-06T16:03:58.439Z,99207.98
2019-03-06T16:06:53.983Z,99210.45
2019-03-06T16:09:43.374Z,99202.15
2019-03-06T16:12:34.994Z,99203.85
2019-03-06T16:15:28.572Z,99197.63
2019-03-06T16:18:19.978Z,99192.41
2019-03-06T16:21:11.794Z,99199.28
2019-03-06T16:24:03.541Z,99197.03
2019-03-06T16:26:55.918Z,99195.69
2019-03-06T16:29:47.942Z,99190.39
2019-03-06T16:32:39.639Z,99179.85
2019-03-06T16:35:31.768Z,99178.81
2019-03-06T16:38:24.510Z,99182.38
2019-03-06T16:41:16.461Z,99177.69
2019-03-06T16:44:09.423Z,99185.89
2019-03-06T16:47:06.770Z,99177.26
2019-03-06T16:49:55.022Z,99172.35
2019-03-06T16:52:47.848Z,99166.36
2019-03-06T16:55:40.219Z,99165.84
2019-03-06T16:58:34.318Z,99161.13
2019-03-06T17:01:27.544Z,99162.77
2019-03-06T17:04:19.632Z,99159.62
2019-03-06T17:07:11.732Z,99167.81
2019-03-06T17:10:03.827Z,99173.23
2019-03-06T17:12:56.911Z,99175.46
2019-03-06T17:15:49.349Z,99175.39
2019-03-06T17:18:41.411Z,99177.63
2019-03-06T17:21:33.246Z,99174.34
2019-03-06T17:24:25.795Z,99181.03
2019-03-06T17:27:17.732Z,99177.15
2019-03-06T17:30:14.416Z,99179.70
2019-03-06T17:33:08.786Z,99179.51
2019-03-06T17:36:01.473Z,99183.73
2019-03-06T17:38:52.867Z,99173.16
2019-03-06T17:41:44.177Z,99169.87
2019-03-06T17:44:36.539Z,99171.36
2019-03-06T17:47:29.217Z,99172.05
2019-03-06T17:50:21.072Z,99171.41
2019-03-06T17:53:12.442Z,99168.73
2019-03-06T17:56:04.028Z,99176.23
2019-03-06T17:58:55.504Z,99168.77
2019-03-06T18:01:47.026Z,99160.02
2019-03-06T18:04:38.366Z,99162.34
2019-03-06T18:07:30.578Z,99168.84
2019-03-06T18:10:21.976Z,99160.47
2019-03-06T18:13:13.904Z,99156.66
2019-03-06T18:16:05.861Z,99153.34
2019-03-06T18:18:57.473Z,99144.29
2019-03-06T18:21:49.817Z,99144.00
2019-03-06T18:24:41.756Z,99141.47
2019-03-06T18:27:33.368Z,99130.52
2019-03-06T18:30:25.059Z,99128.58
2019-03-06T18:33:17.688Z,99117.25
2019-03-06T18:36:09.679Z,99112.98
2019-03-06T18:39:01.303Z,99112.26
2019-03-06T18:41:54.351Z,99113.83
2019-03-06T18:44:45.919Z,99106.03
2019-03-06T18:47:37.720Z,99115.34
2019-03-06T18:50:29.435Z,99104.67
2019-03-06T18:53:21.115Z,99124.63
2019-03-06T18:56:13.468Z,99133.09
2019-03-06T18:59:04.957Z,99130.49
2019-03-06T19:01:56.357Z,99129.51
2019-03-06T19:04:47.962Z,99125.78
2019-03-06T19:07:39.322Z,99120.04
2019-03-06T19:10:30.931Z,99125.79
2019-03-06T19:13:22.739Z,99127.59
2019-03-06T19:16:14.193Z,99121.70
2019-03-06T19:19:06.526Z,99114.38
2019-03-06T19:21:58.142Z,99114.16
2019-03-06T19:24:49.734Z,99108.13
2019-03-06T19:27:41.325Z,99098.94
2019-03-06T19:30:32.928Z,99101.34
2019-03-06T19:33:24.433Z,99100.98
2019-03-06T19:36:15.967Z,99089.88
2019-03-06T19:39:08.379Z,99081.67
2019-03-06T19:42:00.775Z,99083.41
2019-03-06T19:44:52.552Z,99084.24
2019-03-06T19:47:44.775Z,99084.50
2019-03-06T19:50:36.728Z,99077.49
2019-03-06T19:53:28.916Z,99082.86
2019-03-06T19:56:20.714Z,99072.56
2019-03-06T19:59:12.607Z,99078.70
2019-03-06T20:02:04.654Z,99067.67
2019-03-06T20:04:56.938Z,99070.55
2019-03-06T20:07:49.037Z,99073.41
2019-03-06T20:10:41.388Z,99069.03
2019-03-06T20:13:33.579Z,99066.73
2019-03-06T20:16:25.699Z,99053.49
2019-03-06T20:19:18.801Z,99053.29
2019-03-06T20:22:10.700Z,99040.17
2019-03-06T20:25:02.286Z,99049.91
2019-03-06T20:27:53.661Z,99046.19
2019-03-06T20:30:46.166Z,99042.70
2019-03-06T20:33:37.490Z,99043.05
2019-03-06T20:36:28.922Z,99047.08
2019-03-06T20:39:21.153Z,99032.83
2019-03-06T20:42:12.585Z,99039.30
2019-03-06T20:45:04.752Z,99036.61
2019-03-06T20:47:56.150Z,99032.77
2019-03-06T20:50:47.663Z,99036.03
2019-03-06T20:53:39.316Z,99025.78
2019-03-06T20:56:31.051Z,99027.82
2019-03-06T20:59:22.822Z,99029.22
2019-03-06T21:02:14.600Z,99022.25
2019-03-06T21:05:07.017Z,99017.67
2019-03-06T21:08:00.002Z,99016.55
2019-03-06T21:10:51.583Z,99012.84
2019-03-06T21:13:43.029Z,99024.98
2019-03-06T21:16:34.738Z,99022.08
2019-03-06T21:19:26.250Z,99017.48
2019-03-06T21:22:17.635Z,99023.86
2019-03-06T21:25:10.879Z,99009.02
2019-03-06T21:28:02.973Z,99013.66
2019-03-06T21:30:54.320Z,99003.46
2019-03-06T21:33:46.027Z,99004.70
2019-03-06T21:36:37.402Z,98993.53
2019-03-06T21:39:28.857Z,98983.61
2019-03-06T21:42:20.504Z,98982.55
2019-03-06T21:45:12.061Z,98970.64
2019-03-06T21:48:04.444Z,98983.05
2019-03-06T21:50:56.594Z,98979.76
2019-03-06T21:53:48.044Z,98980.02
2019-03-06T21:56:39.915Z,98971.80
2019-03-06T21:59:31.558Z,98967.55
2019-03-06T22:02:23.084Z,98971.59
2019-03-06T22:05:14.861Z,98967.88
2019-03-06T22:08:06.254Z,98965.04
2019-03-06T22:10:57.704Z,98963.97
2019-03-06T22:13:49.395Z,98953.88
2019-03-06T22:16:41.564Z,98954.41
2019-03-06T22:19:34.050Z,98954.27
2019-03-06T22:22:25.409Z,98953.78
2019-03-06T22:25:16.984Z,98943.94
2019-03-06T22:28:08.489Z,98949.31
2019-03-06T22:30:59.887Z,98940.17
2019-03-06T22:33:51.426Z,98934.77
2019-03-06T22:36:42.975Z,98933.20
2019-03-06T22:39:34.366Z,98929.23
2019-03-06T22:42:25.682Z,98921.75
2019-03-06T22:45:17.148Z,98914.28
2019-03-06T22:48:08.521Z,98908.28
2019-03-06T22:51:00.181Z,98909.14
2019-03-06T22:53:51.513Z,98904.51
2019-03-06T22:56:43.120Z,98906.36
2019-03-06T22:59:34.753Z,98895.50
2019-03-06T23:02:26.868Z,98885.94
2019-03-06T23:05:18.548Z,98888.52
2019-03-06T23:08:10.006Z,98877.91
2019-03-06T23:11:01.514Z,98874.51
2019-03-06T23:13:53.205Z,98869.53
2019-03-06T23:16:44.587Z,98869.59
2019-03-06T23:19:36.109Z,98860.31
2019-03-06T23:22:27.737Z,98847.19
2019-03-06T23:25:19.759Z,98839.20
2019-03-06T23:28:11.215Z,98829.54
2019-03-06T23:31:02.657Z,98821.88
2019-03-06T23:33:54.641Z,98827.42
2019-03-06T23:36:46.182Z,98823.59
2019-03-06T23:39:37.700Z,98814.64
2019-03-06T23:42:29.706Z,98809.16
2019-03-06T23:45:21.493Z,98811.10
2019-03-06T23:48:14.436Z,98807.49
2019-03-06T23:51:11.696Z,98807.13
2019-03-06T23:54:03.256Z,98803.20
2019-03-06T23:56:54.574Z,98809.20
2019-03-06T23:59:46.244Z,98809.77
